首页
METAR-TAF:

METAR-TAF

机场 :

胡德堡 / 基林, 得克萨斯州, 美国

纬度: 31-06N, 经度: 097-20W, 海拔: 283米

当前天气观测

该预报发布于28分钟前的14:55 UTC
风速7节,风向南转西南
温度 30°C
湿度 70%
气压 1015 hPa
能見度: 16.1公里
天空无云

METAR: KHLR 241455Z AUTO 20007KT 10SM CLR 30/24 A2998 RMK AO2 SLP140 T03040238 51010

时间: 09:23 (15:23 UTC)


TAF: 丢失

超过4000个机场的气象观测和天气预报(METAR&TAF报告)。

可查询的气象台以黄色和红色小点在地图上表示。

将鼠标移到小点上方,可查看气象台名称。

然后点击查看天气观测和预报。

如需切换地图:点击带黑十字的绿色按钮放大地图;点击带横线的绿色按钮缩小地图;或者点击绿色箭头查看邻近地区的地图。


METAR-TAF: